ARDEC Weather Station

Colorado State Home Page USDA/ARS Home Page



Station:CSU - ARDEC
Location:6 mi NE Fort Collins
Elevation:5110
Longitude:105
Latitude:40.6525

ARDEC 5 Minute Data
Date Time Temp RelHum Dewpt Vapor Solar Wind Spd Wind Dir Precip 5 Soil 15 Soil Gust Spd Gust Tim Gust Dir Battery
MST °F %°Fmb ly/min mph °in. °F °F mphMST ° volts
2014-12-2216:15 34.6 46.4 16.1 3.14 0.04 13.2 323 0.00 34.2 34.3 17.7 16:14 310 11.48
2014-12-2216:10 34.6 47.0 16.4 3.18 0.05 8.9 328 0.00 34.2 34.3 13.2 16:07 330 11.47
2014-12-2216:05 34.8 46.9 16.6 3.21 0.06 10.0 322 0.00 34.2 34.3 15.1 16:00 327 11.48
2014-12-2216:00 34.9 47.3 16.8 3.24 0.07 12.7 318 0.00 34.2 34.3 15.3 15:57 310 11.47
2014-12-2215:55 35.1 47.3 17.0 3.27 0.08 11.6 317 0.00 34.2 34.3 15.8 15:54 318 11.48
2014-12-2215:50 35.5 45.4 16.4 3.19 0.10 10.2 319 0.00 34.2 34.3 13.5 15:49 324 11.48
2014-12-2215:45 36.0 44.3 16.3 3.17 0.15 9.8 312 0.00 34.2 34.3 11.7 15:41 316 11.48
2014-12-2215:40 36.3 42.8 15.9 3.11 0.20 10.6 317 0.00 34.1 34.3 13.9 15:36 330 11.48
2014-12-2215:35 36.3 42.1 15.4 3.05 0.21 11.8 328 0.00 34.1 34.3 15.7 15:30 329 11.47
2014-12-2215:30 36.3 43.8 16.4 3.18 0.16 12.4 321 0.00 34.1 34.2 17.0 15:30 305 11.47
2014-12-2215:25 36.5 43.9 16.6 3.20 0.18 12.5 317 0.00 34.1 34.2 18.1 15:24 325 11.47
2014-12-2215:20 36.3 44.5 16.7 3.23 0.21 12.4 317 0.00 34.1 34.2 15.7 15:17 325 11.47
2014-12-2215:15 36.4 44.6 16.9 3.25 0.17 12.6 321 0.00 34.1 34.2 16.3 15:13 311 11.48
2014-12-2215:10 36.5 45.2 17.3 3.30 0.17 13.0 316 0.00 34.1 34.2 16.7 15:07 327 11.47
2014-12-2215:05 36.1 46.5 17.6 3.35 0.27 11.7 324 0.00 34.0 34.2 15.7 15:02 337 11.47
2014-12-2215:00 35.8 46.9 17.5 3.34 0.21 12.1 323 0.00 34.0 34.2 17.0 14:58 334 11.47
2014-12-2214:55 35.5 48.9 18.2 3.45 0.15 11.8 331 0.00 34.0 34.2 18.2 14:55 312 11.47
2014-12-2214:50 35.5 50.8 19.1 3.57 0.18 10.0 335 0.00 34.0 34.2 14.6 14:49 337 11.47
2014-12-2214:45 35.4 51.6 19.3 3.62 0.21 13.4 328 0.00 34.0 34.2 19.2 14:42 324 11.48
2014-12-2214:40 34.7 55.5 20.4 3.78 0.33 11.8 323 0.00 34.0 34.1 14.8 14:37 329 11.47
2014-12-2214:35 33.8 57.6 20.4 3.78 0.20 10.7 321 0.00 34.0 34.1 17.5 14:30 308 11.47
2014-12-2214:30 33.4 59.4 20.8 3.84 0.10 10.6 311 0.00 34.0 34.1 17.0 14:29 315 11.47
2014-12-2214:25 33.4 60.7 21.3 3.92 0.07 11.6 304 0.00 34.0 34.1 16.3 14:20 302 11.47
2014-12-2214:20 33.8 59.7 21.2 3.91 0.09 12.4 293 0.00 34.0 34.1 14.7 14:19 294 11.47
2014-12-2214:15 34.7 55.1 20.3 3.76 0.11 13.6 288 0.00 34.0 34.1 19.6 14:13 291 11.48

 


Plots for last week.

ARDEC Home


DISCLAIMER

Authorized use of this data is limited to the academic, administrative, research Colorado State University and its Cooperative and Extension facilities. Use is NOT authorized for operational or commercial purposes. The data are provided "as is", and in no event shall the providers be liable for any damage or loss due to missing data or misinterpretation of its content.

 


Return to the CoAgMet Homepage.